createdAt,value
2023-01-30T00:00:36.603Z,21.40
2023-01-30T00:05:57.119Z,22.70
2023-01-30T00:11:13.543Z,22.50
2023-01-30T00:16:19.686Z,23.00
2023-01-30T00:21:23.417Z,23.30
2023-01-30T00:26:27.885Z,26.50
2023-01-30T00:31:31.688Z,22.00
2023-01-30T00:36:35.583Z,25.60
2023-01-30T00:41:58.628Z,24.20
2023-01-30T00:47:06.350Z,23.20
2023-01-30T00:52:10.313Z,23.80
2023-01-30T00:57:14.149Z,25.90
2023-01-30T01:02:18.471Z,20.60
2023-01-30T01:07:22.740Z,23.30
2023-01-30T01:12:27.024Z,23.50
2023-01-30T01:17:30.971Z,23.00
2023-01-30T01:22:35.502Z,20.00
2023-01-30T01:27:39.264Z,21.00
2023-01-30T01:32:42.963Z,19.60
2023-01-30T01:37:47.186Z,24.00
2023-01-30T01:42:51.363Z,20.50
2023-01-30T01:48:35.601Z,21.10
2023-01-30T01:53:54.151Z,20.50
2023-01-30T01:59:03.364Z,22.80
2023-01-30T02:04:10.265Z,20.40
2023-01-30T02:09:14.574Z,22.40
2023-01-30T02:14:19.675Z,18.40
2023-01-30T02:19:41.260Z,23.00
2023-01-30T02:25:01.769Z,27.00
2023-01-30T02:30:39.712Z,21.50
2023-01-30T02:36:19.107Z,23.80
2023-01-30T02:41:25.685Z,19.80
2023-01-30T02:46:58.239Z,18.90
2023-01-30T02:52:04.329Z,17.00
2023-01-30T02:57:23.747Z,19.40
2023-01-30T03:02:51.160Z,19.20
2023-01-30T03:08:09.942Z,18.60
2023-01-30T03:13:41.721Z,17.10
2023-01-30T03:18:51.540Z,23.70
2023-01-30T03:23:55.261Z,17.90
2023-01-30T03:29:00.944Z,17.70
2023-01-30T03:34:04.518Z,17.10
2023-01-30T03:39:08.736Z,17.50
2023-01-30T03:44:13.124Z,18.20
2023-01-30T03:49:19.173Z,22.00
2023-01-30T03:54:23.705Z,17.80
2023-01-30T03:59:28.204Z,20.60
2023-01-30T04:04:38.626Z,21.80
2023-01-30T04:09:43.106Z,17.20
2023-01-30T04:14:48.204Z,17.00
2023-01-30T04:20:12.544Z,21.20
2023-01-30T04:25:21.309Z,14.20
2023-01-30T04:30:26.486Z,15.40
2023-01-30T04:35:37.627Z,17.10
2023-01-30T04:40:42.198Z,15.40
2023-01-30T04:45:47.466Z,14.70
2023-01-30T04:50:53.821Z,17.50
2023-01-30T04:55:57.635Z,16.50
2023-01-30T05:01:38.000Z,13.00
2023-01-30T05:06:42.121Z,17.70
2023-01-30T05:11:45.834Z,12.70
2023-01-30T05:16:49.700Z,17.60
2023-01-30T05:21:53.502Z,18.60
2023-01-30T05:26:57.283Z,15.80
2023-01-30T05:32:00.993Z,17.40
2023-01-30T05:37:05.482Z,20.10
2023-01-30T05:42:09.510Z,18.70
2023-01-30T05:47:13.969Z,17.10
2023-01-30T05:52:17.798Z,19.20
2023-01-30T05:57:21.481Z,18.90
2023-01-30T06:02:26.002Z,16.50
2023-01-30T06:07:30.481Z,16.70
2023-01-30T06:12:34.648Z,17.70
2023-01-30T06:17:40.422Z,18.60
2023-01-30T06:22:44.275Z,17.30
2023-01-30T06:27:48.876Z,17.50
2023-01-30T06:32:52.797Z,16.50
2023-01-30T06:37:56.519Z,14.70
2023-01-30T06:43:02.602Z,15.40
2023-01-30T06:48:07.145Z,19.60
2023-01-30T06:53:11.700Z,20.10
2023-01-30T06:58:16.262Z,16.30
2023-01-30T07:03:20.606Z,16.90
2023-01-30T07:08:52.672Z,18.80
2023-01-30T07:14:38.939Z,17.40
2023-01-30T07:20:13.159Z,17.50
2023-01-30T07:25:26.448Z,19.00
2023-01-30T07:30:42.754Z,19.30
2023-01-30T07:35:52.510Z,18.00
2023-01-30T07:41:00.012Z,18.30
2023-01-30T07:46:04.474Z,20.30
2023-01-30T07:51:08.716Z,21.60
2023-01-30T07:56:19.683Z,22.30
2023-01-30T08:01:25.523Z,24.20
2023-01-30T08:06:31.933Z,22.00
2023-01-30T08:11:36.808Z,23.30
2023-01-30T08:16:43.344Z,24.10
2023-01-30T08:21:48.154Z,17.20
2023-01-30T08:26:55.343Z,21.20
2023-01-30T08:32:00.075Z,21.90
2023-01-30T08:37:08.292Z,23.70
2023-01-30T08:42:17.732Z,23.10
2023-01-30T08:47:22.337Z,23.30
2023-01-30T08:52:27.343Z,20.40
2023-01-30T08:57:33.994Z,20.10
2023-01-30T09:02:39.858Z,19.00
2023-01-30T09:07:43.868Z,20.60
2023-01-30T09:12:48.608Z,19.50
2023-01-30T09:17:56.846Z,18.90
2023-01-30T09:23:02.246Z,18.20
2023-01-30T09:28:06.199Z,18.00
2023-01-30T09:33:11.567Z,18.10
2023-01-30T09:38:16.884Z,17.40
2023-01-30T09:43:45.310Z,19.30
2023-01-30T09:49:05.767Z,19.00
2023-01-30T09:54:24.811Z,17.50
2023-01-30T09:59:40.257Z,14.60
2023-01-30T10:05:00.857Z,17.10
2023-01-30T10:11:04.383Z,15.30
2023-01-30T10:16:29.260Z,13.00
2023-01-30T10:22:11.311Z,12.70
2023-01-30T10:27:18.639Z,13.20
2023-01-30T10:33:14.662Z,17.50
2023-01-30T10:38:22.457Z,15.20
2023-01-30T10:43:44.353Z,15.10
2023-01-30T10:49:17.342Z,18.10
2023-01-30T10:54:43.830Z,19.10
2023-01-30T10:59:51.037Z,14.30
2023-01-30T11:05:17.168Z,17.30
2023-01-30T11:10:31.166Z,15.90
2023-01-30T11:15:41.486Z,13.90
2023-01-30T11:20:48.093Z,14.90
2023-01-30T11:26:10.122Z,15.80
2023-01-30T11:31:41.657Z,12.00
2023-01-30T11:36:52.619Z,10.90
2023-01-30T11:42:16.729Z,11.40
2023-01-30T11:47:25.649Z,9.80
2023-01-30T11:52:32.628Z,8.60
2023-01-30T11:57:42.443Z,9.00
2023-01-30T12:02:48.403Z,7.90
2023-01-30T12:07:54.135Z,8.10
2023-01-30T12:13:01.399Z,7.30
2023-01-30T12:18:19.959Z,7.10
2023-01-30T12:23:53.650Z,10.20
2023-01-30T12:29:02.686Z,7.30
2023-01-30T12:34:08.457Z,7.60
2023-01-30T12:39:41.974Z,6.10
2023-01-30T12:50:15.374Z,6.60
2023-01-30T12:56:07.216Z,6.00
2023-01-30T13:01:30.838Z,9.30
2023-01-30T13:07:26.232Z,8.60
2023-01-30T13:13:11.068Z,7.40
2023-01-30T13:18:38.359Z,9.20
2023-01-30T13:24:02.294Z,7.70
2023-01-30T13:29:28.469Z,7.90
2023-01-30T13:34:43.851Z,6.40
2023-01-30T13:39:55.638Z,6.80
2023-01-30T13:45:00.971Z,7.10
2023-01-30T13:50:51.584Z,6.20
2023-01-30T13:56:27.165Z,7.10
2023-01-30T14:02:22.049Z,4.90
2023-01-30T14:07:44.771Z,6.60
2023-01-30T14:12:51.131Z,8.30
2023-01-30T14:18:08.229Z,6.70
2023-01-30T14:23:23.623Z,8.50
2023-01-30T14:28:30.219Z,5.10
2023-01-30T14:33:51.441Z,7.10
2023-01-30T14:39:36.612Z,6.40
2023-01-30T14:45:05.229Z,7.20
2023-01-30T14:50:23.604Z,4.50
2023-01-30T14:55:34.940Z,6.00
2023-01-30T15:00:39.421Z,8.40
2023-01-30T15:05:45.269Z,4.60
2023-01-30T15:10:52.136Z,6.10
2023-01-30T15:16:28.515Z,5.40
2023-01-30T15:22:11.419Z,7.00
2023-01-30T15:27:31.934Z,8.00
2023-01-30T15:32:35.944Z,7.60
2023-01-30T15:37:51.484Z,9.10
2023-01-30T15:43:21.991Z,7.50
2023-01-30T15:49:07.390Z,7.00
2023-01-30T15:54:12.962Z,4.50
2023-01-30T15:59:44.676Z,7.00
2023-01-30T16:04:49.226Z,8.30
2023-01-30T16:10:08.699Z,10.60
2023-01-30T16:15:20.078Z,9.00
2023-01-30T16:20:25.063Z,5.90
2023-01-30T16:25:35.915Z,10.10
2023-01-30T16:30:42.918Z,7.60
2023-01-30T16:35:47.581Z,5.10
2023-01-30T16:40:52.499Z,8.20
2023-01-30T16:46:34.863Z,7.30
2023-01-30T16:51:42.421Z,11.60
2023-01-30T16:57:17.041Z,8.90
2023-01-30T17:02:45.397Z,10.20
2023-01-30T17:07:52.875Z,7.40
2023-01-30T17:13:00.288Z,8.80
2023-01-30T17:18:07.158Z,8.30
2023-01-30T17:23:18.063Z,7.60
2023-01-30T17:28:24.947Z,9.50
2023-01-30T17:33:34.872Z,9.00
2023-01-30T17:38:40.471Z,8.00
2023-01-30T17:43:44.685Z,7.40
2023-01-30T17:48:52.245Z,10.00
2023-01-30T17:54:00.032Z,9.30
2023-01-30T17:59:25.167Z,7.30
2023-01-30T18:04:29.812Z,10.90
2023-01-30T18:09:34.732Z,5.40
2023-01-30T18:14:39.741Z,5.30
2023-01-30T18:19:46.512Z,4.60
2023-01-30T18:24:55.279Z,3.60
2023-01-30T18:30:00.478Z,4.20
2023-01-30T18:35:07.392Z,5.80
2023-01-30T18:40:15.734Z,4.40
2023-01-30T18:45:21.353Z,5.80
2023-01-30T18:50:26.182Z,6.70
2023-01-30T18:55:32.052Z,3.40
2023-01-30T19:00:37.253Z,5.40
2023-01-30T19:05:42.817Z,5.10
2023-01-30T19:10:51.034Z,5.70
2023-01-30T19:16:04.694Z,6.50
2023-01-30T19:21:11.041Z,5.90
2023-01-30T19:26:17.798Z,5.50
2023-01-30T19:31:24.216Z,6.10
2023-01-30T19:36:33.798Z,4.40
2023-01-30T19:41:39.402Z,6.30
2023-01-30T19:46:45.513Z,4.30
2023-01-30T19:51:50.524Z,8.20
2023-01-30T19:56:59.950Z,9.30
2023-01-30T20:09:15.129Z,9.60
2023-01-30T20:14:27.358Z,8.20
2023-01-30T20:19:35.329Z,10.10
2023-01-30T20:24:43.079Z,10.40
2023-01-30T20:29:53.367Z,8.90
2023-01-30T20:35:02.866Z,10.20
2023-01-30T20:40:10.557Z,5.30
2023-01-30T20:45:19.852Z,6.60
2023-01-30T20:50:28.879Z,7.10
2023-01-30T20:55:34.685Z,9.80
2023-01-30T21:00:40.769Z,9.30
2023-01-30T21:05:58.370Z,7.30
2023-01-30T21:11:13.715Z,11.00
2023-01-30T21:16:26.501Z,8.00
2023-01-30T21:21:37.069Z,5.90
2023-01-30T21:26:46.798Z,9.30
2023-01-30T21:31:52.482Z,8.00
2023-01-30T21:37:16.267Z,11.70
2023-01-30T21:42:40.389Z,8.90
2023-01-30T21:47:45.723Z,8.00
2023-01-30T21:52:50.109Z,11.70
2023-01-30T21:57:54.405Z,15.60
2023-01-30T22:03:03.636Z,8.70
2023-01-30T22:08:16.428Z,17.50
2023-01-30T22:13:20.604Z,12.40
2023-01-30T22:18:24.583Z,14.00
2023-01-30T22:23:38.536Z,13.60
2023-01-30T22:28:48.612Z,10.50
2023-01-30T22:34:00.608Z,12.30
2023-01-30T22:39:06.704Z,16.40
2023-01-30T22:44:14.051Z,9.50
2023-01-30T22:49:19.697Z,9.30
2023-01-30T22:54:24.998Z,8.30
2023-01-30T22:59:30.253Z,10.20
2023-01-30T23:04:34.331Z,9.40
2023-01-30T23:09:38.300Z,13.80
2023-01-30T23:14:45.443Z,15.70
2023-01-30T23:19:51.372Z,15.60
2023-01-30T23:24:56.962Z,16.80
2023-01-30T23:30:01.001Z,15.60
2023-01-30T23:35:05.283Z,17.30
2023-01-30T23:40:11.467Z,18.10
2023-01-30T23:45:15.412Z,18.00
2023-01-30T23:50:19.358Z,14.30
2023-01-30T23:55:23.357Z,17.90
